Time;durP1;ratioP1;P1;durP2;ratioP2;P2;SDS_P1;SDS_P2;PMS_P1;PMS_P2;Temp;Humidity;BMP_temperature;BMP_pressure;BME280_temperature;BME280_humidity;BME280_pressure;Samples;Min_cycle;Max_cycle;Signal;HPM_P1;HPM_P2
2023/02/26 00:00:31;;;;;;;;;;;-1.90;99.90;;;;;;4990205;28;20058;-74
2023/02/26 00:02:57;;;;;;;;;;;-1.90;99.90;;;;;;4979961;28;19925;-74
2023/02/26 00:05:24;;;;;;;;;;;-2.00;99.90;;;;;;4998699;28;20283;-74
2023/02/26 00:07:50;;;;;;;;;;;-2.00;99.90;;;;;;4996083;28;19910;-74
2023/02/26 00:10:16;;;;;;;;;;;-2.00;99.90;;;;;;4998314;28;20409;-74
2023/02/26 00:12:42;;;;;;;;;;;-2.10;99.90;;;;;;4976926;28;20356;-74
2023/02/26 00:15:12;;;;;;;;;;;-2.10;99.90;;;;;;4995254;28;19917;-74
2023/02/26 00:17:41;;;;;;;;;;;-2.20;99.90;;;;;;4994370;28;19937;-74
2023/02/26 00:20:09;;;;;;;;;;;-2.20;99.90;;;;;;4993374;28;19921;-74
2023/02/26 00:22:35;;;;;;;;;;;-2.30;99.90;;;;;;4977900;28;19914;-75
2023/02/26 00:25:01;;;;;;;;;;;-2.20;99.90;;;;;;4994521;28;20476;-74
2023/02/26 00:27:27;;;;;;;;;;;-2.30;99.90;;;;;;4993438;28;20351;-74
2023/02/26 00:29:53;;;;;;;;;;;-2.30;99.90;;;;;;4994415;28;19920;-74
2023/02/26 00:32:19;;;;;;;;;;;-2.30;99.90;;;;;;4979703;28;19929;-74
2023/02/26 00:34:46;;;;;;;;;;;-2.30;99.90;;;;;;4993470;28;19944;-74
2023/02/26 00:37:27;;;;;;;;;;;-2.30;99.90;;;;;;4979365;28;19928;-74
2023/02/26 00:39:59;;;;;;;;;;;-2.10;99.90;;;;;;4994546;28;19925;-74
2023/02/26 00:42:25;;;;;;;;;;;-2.00;99.90;;;;;;4992789;28;19966;-74
2023/02/26 00:44:51;;;;;;;;;;;-2.00;99.90;;;;;;4979403;28;19918;-73
2023/02/26 00:47:29;;;;;;;;;;;-2.00;99.90;;;;;;4994446;28;19920;-73
2023/02/26 00:50:04;;;;;;;;;;;-2.00;99.90;;;;;;4980531;28;19914;-73
2023/02/26 00:52:35;;;;;;;;;;;-2.10;99.90;;;;;;4992168;28;19922;-73
2023/02/26 00:55:01;;;;;;;;;;;-2.10;99.90;;;;;;4978686;28;19914;-73
2023/02/26 00:57:27;;;;;;;;;;;-2.00;99.90;;;;;;4993458;28;20283;-74
2023/02/26 00:59:53;;;;;;;;;;;-2.00;99.90;;;;;;4979723;28;19960;-73
2023/02/26 01:02:19;;;;;;;;;;;-2.00;99.90;;;;;;4992879;28;20414;-74
2023/02/26 01:04:47;;;;;;;;;;;-2.00;99.90;;;;;;4980920;28;19913;-73
2023/02/26 01:07:14;;;;;;;;;;;-2.00;99.90;;;;;;4996592;28;19913;-74
2023/02/26 01:09:40;;;;;;;;;;;-2.10;99.90;;;;;;4984037;28;19913;-73
2023/02/26 01:12:07;;;;;;;;;;;-2.10;99.90;;;;;;4983891;28;19914;-73
2023/02/26 01:14:33;;;;;;;;;;;-2.10;99.90;;;;;;4978773;28;19921;-75
2023/02/26 01:17:38;;;;;;;;;;;-2.10;99.90;;;;;;4994871;28;19917;-75
2023/02/26 01:20:16;;;;;;;;;;;-2.10;99.90;;;;;;4925416;29;19922;-75
2023/02/26 01:22:56;;;;;;;;;;;-2.10;99.90;;;;;;4914399;29;19922;-75
2023/02/26 01:25:31;;;;;;;;;;;-2.10;99.90;;;;;;4971890;28;19936;-72
2023/02/26 01:27:57;;;;;;;;;;;-2.20;99.90;;;;;;4996932;28;19920;-75
2023/02/26 01:30:24;;;;;;;;;;;-2.20;99.90;;;;;;4975487;28;19917;-73
2023/02/26 01:33:01;;;;;;;;;;;-2.10;99.90;;;;;;4974397;28;19933;-74
2023/02/26 01:35:27;;;;;;;;;;;-2.00;99.90;;;;;;4993335;28;19913;-73
2023/02/26 01:37:57;;;;;;;;;;;-1.80;99.90;;;;;;4992190;28;19957;-73
2023/02/26 01:40:38;;;;;;;;;;;-1.80;99.90;;;;;;4993230;28;20287;-73
2023/02/26 01:43:08;;;;;;;;;;;-1.70;99.90;;;;;;4992744;28;19921;-73
2023/02/26 01:45:38;;;;;;;;;;;-1.60;99.90;;;;;;4992920;28;20306;-73
2023/02/26 01:48:20;;;;;;;;;;;-1.60;99.90;;;;;;4994189;28;19921;-72
2023/02/26 01:50:46;;;;;;;;;;;-1.50;99.90;;;;;;4993201;28;19920;-74
2023/02/26 01:53:17;;;;;;;;;;;-1.50;99.90;;;;;;4991682;28;19929;-73
2023/02/26 01:55:44;;;;;;;;;;;-1.40;99.90;;;;;;4981961;28;19918;-74
2023/02/26 01:58:11;;;;;;;;;;;-1.40;99.90;;;;;;4984383;28;19933;-74
2023/02/26 02:00:37;;;;;;;;;;;-1.40;99.90;;;;;;4991423;28;19922;-72
2023/02/26 02:03:03;;;;;;;;;;;-1.40;99.90;;;;;;4984092;28;19925;-74
2023/02/26 02:05:33;;;;;;;;;;;-1.40;99.90;;;;;;4992473;28;19914;-74
2023/02/26 02:07:59;;;;;;;;;;;-1.30;99.90;;;;;;4996193;28;19917;-73
2023/02/26 02:10:26;;;;;;;;;;;-1.20;99.90;;;;;;4991688;28;20339;-75
2023/02/26 02:13:04;;;;;;;;;;;-1.30;99.90;;;;;;4981915;28;19917;-75
2023/02/26 02:15:33;;;;;;;;;;;-1.30;99.90;;;;;;4997719;28;20351;-76
2023/02/26 02:18:09;;;;;;;;;;;-1.30;99.90;;;;;;4982390;28;19918;-74
2023/02/26 02:20:44;;;;;;;;;;;-1.30;99.90;;;;;;4994509;28;20355;-74
2023/02/26 02:23:26;;;;;;;;;;;-1.20;99.90;;;;;;4981676;28;19933;-74
2023/02/26 02:25:52;;;;;;;;;;;-1.30;99.90;;;;;;4992081;28;19913;-73
2023/02/26 02:28:22;;;;;;;;;;;-1.40;99.90;;;;;;4979750;28;19921;-74
2023/02/26 02:30:50;;;;;;;;;;;-1.40;99.90;;;;;;4995732;28;19921;-74
2023/02/26 02:33:18;;;;;;;;;;;-1.40;99.90;;;;;;4978537;28;19926;-74
2023/02/26 02:35:48;;;;;;;;;;;-1.40;99.90;;;;;;4993148;28;19914;-74
2023/02/26 02:38:19;;;;;;;;;;;-1.50;99.90;;;;;;4991683;28;20267;-74
2023/02/26 02:40:47;;;;;;;;;;;-1.50;99.90;;;;;;4996120;28;19937;-74
2023/02/26 02:43:18;;;;;;;;;;;-1.50;99.90;;;;;;4994632;28;19921;-74
2023/02/26 02:45:48;;;;;;;;;;;-1.50;99.90;;;;;;4995864;28;19913;-74
2023/02/26 02:48:14;;;;;;;;;;;-1.50;99.90;;;;;;4996684;28;20386;-74
2023/02/26 02:50:47;;;;;;;;;;;-1.60;99.90;;;;;;4995959;28;19913;-75
2023/02/26 02:53:17;;;;;;;;;;;-1.60;99.90;;;;;;4994492;28;19998;-74
2023/02/26 02:55:47;;;;;;;;;;;-1.70;99.90;;;;;;4986999;28;20271;-74
2023/02/26 02:58:16;;;;;;;;;;;-1.70;99.90;;;;;;4996401;28;20282;-74
2023/02/26 03:00:49;;;;;;;;;;;-1.70;99.90;;;;;;4999025;28;19922;-74
2023/02/26 03:03:15;;;;;;;;;;;-1.80;99.90;;;;;;4982053;28;19918;-74
2023/02/26 03:05:41;;;;;;;;;;;-1.80;99.90;;;;;;4998304;28;20355;-74
2023/02/26 03:08:08;;;;;;;;;;;-1.70;99.90;;;;;;4992782;28;20386;-74
2023/02/26 03:10:35;;;;;;;;;;;-1.60;99.90;;;;;;4997195;28;19914;-75
2023/02/26 03:13:02;;;;;;;;;;;-1.60;99.90;;;;;;4989760;28;19925;-73
2023/02/26 03:15:33;;;;;;;;;;;-1.50;99.90;;;;;;4983021;28;19922;-74
2023/02/26 03:18:05;;;;;;;;;;;-1.50;99.90;;;;;;4994825;28;19913;-74
2023/02/26 03:20:37;;;;;;;;;;;-1.40;99.90;;;;;;4981019;28;20359;-74
2023/02/26 03:23:17;;;;;;;;;;;-1.40;99.90;;;;;;4985137;28;20359;-74
2023/02/26 03:25:52;;;;;;;;;;;-1.40;99.90;;;;;;4989852;28;20371;-74
2023/02/26 03:28:24;;;;;;;;;;;-1.50;99.90;;;;;;4980379;28;20405;-73
2023/02/26 03:30:52;;;;;;;;;;;-1.40;99.90;;;;;;4998782;28;19918;-73
2023/02/26 03:33:18;;;;;;;;;;;-1.40;99.90;;;;;;4994464;28;19922;-73
2023/02/26 03:35:57;;;;;;;;;;;-1.40;99.90;;;;;;4994372;28;19913;-74
2023/02/26 03:38:27;;;;;;;;;;;-1.40;99.90;;;;;;4981314;28;19914;-73
2023/02/26 03:41:01;;;;;;;;;;;-1.50;99.90;;;;;;4982327;28;19914;-75
2023/02/26 03:43:43;;;;;;;;;;;-1.50;99.90;;;;;;4968135;28;19920;-74
2023/02/26 03:46:14;;;;;;;;;;;-1.40;99.90;;;;;;4963312;28;19920;-74
2023/02/26 03:48:41;;;;;;;;;;;-1.50;99.90;;;;;;4980705;28;19936;-75
2023/02/26 03:51:10;;;;;;;;;;;-1.60;99.90;;;;;;4986520;28;20275;-74
2023/02/26 03:54:03;;;;;;;;;;;-1.70;99.90;;;;;;4982818;28;19922;-75
2023/02/26 03:56:40;;;;;;;;;;;-1.80;99.90;;;;;;4983512;28;19937;-73
2023/02/26 03:59:25;;;;;;;;;;;-1.80;99.90;;;;;;5002320;28;20293;-73
2023/02/26 04:02:10;;;;;;;;;;;-1.80;99.90;;;;;;4977327;28;20283;-74
2023/02/26 04:04:46;;;;;;;;;;;-1.80;99.90;;;;;;4992312;28;19921;-74
2023/02/26 04:07:14;;;;;;;;;;;-1.80;99.90;;;;;;4978453;28;19921;-73
2023/02/26 04:09:41;;;;;;;;;;;-1.80;99.90;;;;;;4985889;28;19914;-74
2023/02/26 04:12:07;;;;;;;;;;;-1.90;99.90;;;;;;4987106;28;19914;-74
2023/02/26 04:14:33;;;;;;;;;;;-1.90;99.90;;;;;;4982951;28;19921;-73
2023/02/26 04:16:59;;;;;;;;;;;-1.90;99.90;;;;;;4979949;28;19917;-74
2023/02/26 04:19:25;;;;;;;;;;;-1.90;99.90;;;;;;4977748;28;20374;-73
2023/02/26 04:21:52;;;;;;;;;;;-1.90;99.90;;;;;;4991945;28;19936;-73
2023/02/26 04:24:18;;;;;;;;;;;-1.90;99.90;;;;;;4991522;28;19918;-73
2023/02/26 04:26:44;;;;;;;;;;;-2.00;99.90;;;;;;4979005;28;19913;-74
2023/02/26 04:29:10;;;;;;;;;;;-2.10;99.90;;;;;;4980576;28;19913;-73
2023/02/26 04:31:37;;;;;;;;;;;-2.10;99.90;;;;;;4977317;28;19910;-73
2023/02/26 04:34:04;;;;;;;;;;;-2.00;99.90;;;;;;4982233;28;19930;-74
2023/02/26 04:36:30;;;;;;;;;;;-2.10;99.90;;;;;;4994776;28;19921;-73
2023/02/26 04:38:57;;;;;;;;;;;-2.00;99.90;;;;;;4993816;28;19917;-73
2023/02/26 04:41:23;;;;;;;;;;;-2.00;99.90;;;;;;4980384;28;20274;-73
2023/02/26 04:43:49;;;;;;;;;;;-2.00;99.90;;;;;;4976373;28;20016;-74
2023/02/26 04:46:30;;;;;;;;;;;-2.10;99.90;;;;;;4979389;28;19913;-73
2023/02/26 04:48:56;;;;;;;;;;;-2.00;99.90;;;;;;4978486;28;20256;-73
2023/02/26 04:51:23;;;;;;;;;;;-2.00;99.90;;;;;;4980005;28;19929;-73
2023/02/26 04:53:50;;;;;;;;;;;-2.00;99.90;;;;;;4983790;28;19922;-74
2023/02/26 04:56:16;;;;;;;;;;;-2.00;99.90;;;;;;4991608;28;19917;-73
2023/02/26 04:58:44;;;;;;;;;;;-2.00;99.90;;;;;;4980634;28;19910;-75
2023/02/26 05:01:15;;;;;;;;;;;-1.90;99.90;;;;;;4976881;28;19933;-74
2023/02/26 05:03:41;;;;;;;;;;;-2.00;99.90;;;;;;4978262;28;19918;-74
2023/02/26 05:06:09;;;;;;;;;;;-2.00;99.90;;;;;;4987327;28;20275;-73
2023/02/26 05:08:40;;;;;;;;;;;-2.00;99.90;;;;;;4979547;28;19932;-72
2023/02/26 05:11:06;;;;;;;;;;;-2.00;99.90;;;;;;4994066;28;19921;-74
2023/02/26 05:13:32;;;;;;;;;;;-1.90;99.90;;;;;;5000205;28;19922;-73
2023/02/26 05:15:58;;;;;;;;;;;-1.90;99.90;;;;;;4978113;28;20318;-74
2023/02/26 05:18:24;;;;;;;;;;;-1.90;99.90;;;;;;4991878;28;20341;-73
2023/02/26 05:20:54;;;;;;;;;;;-1.90;99.90;;;;;;4985515;28;19913;-73
2023/02/26 05:23:20;;;;;;;;;;;-2.00;99.90;;;;;;4969915;28;19913;-74
2023/02/26 05:25:47;;;;;;;;;;;-1.90;99.90;;;;;;4991574;28;19920;-72
2023/02/26 05:28:14;;;;;;;;;;;-1.90;99.90;;;;;;4979349;28;19910;-72
2023/02/26 05:30:40;;;;;;;;;;;-1.90;99.90;;;;;;4993377;28;20038;-74
2023/02/26 05:33:06;;;;;;;;;;;-1.90;99.90;;;;;;4993298;28;19922;-72
2023/02/26 05:35:32;;;;;;;;;;;-2.00;99.90;;;;;;4991232;28;19980;-74
2023/02/26 05:37:58;;;;;;;;;;;-2.00;99.90;;;;;;4992776;28;19996;-73
2023/02/26 05:40:24;;;;;;;;;;;-1.90;99.90;;;;;;4993232;28;19913;-72
2023/02/26 05:42:50;;;;;;;;;;;-2.00;99.90;;;;;;4994519;28;19909;-72
2023/02/26 05:45:17;;;;;;;;;;;-2.00;99.90;;;;;;4991975;28;20275;-72
2023/02/26 05:47:43;;;;;;;;;;;-2.00;99.90;;;;;;4992727;28;20397;-73
2023/02/26 05:50:09;;;;;;;;;;;-2.00;99.90;;;;;;4992875;28;19921;-72
2023/02/26 05:52:35;;;;;;;;;;;-2.00;99.90;;;;;;4993003;28;19914;-72
2023/02/26 05:55:01;;;;;;;;;;;-2.00;99.90;;;;;;4990965;28;20351;-72
2023/02/26 05:57:27;;;;;;;;;;;-2.00;99.90;;;;;;4993001;28;19913;-73
2023/02/26 05:59:53;;;;;;;;;;;-2.10;99.90;;;;;;4977607;28;20290;-73
2023/02/26 06:02:19;;;;;;;;;;;-2.10;99.90;;;;;;4992059;28;19929;-73
2023/02/26 06:04:45;;;;;;;;;;;-2.20;99.90;;;;;;4990763;28;19925;-73
2023/02/26 06:07:11;;;;;;;;;;;-2.20;99.90;;;;;;4992764;28;19914;-73
2023/02/26 06:09:38;;;;;;;;;;;-2.30;99.90;;;;;;4992738;28;19929;-73
2023/02/26 06:12:05;;;;;;;;;;;-2.30;99.90;;;;;;4988449;28;19914;-73
2023/02/26 06:14:31;;;;;;;;;;;-2.30;99.90;;;;;;4995364;28;19925;-73
2023/02/26 06:16:57;;;;;;;;;;;-2.20;1.00;;;;;;4999979;28;19914;-73
2023/02/26 06:19:23;;;;;;;;;;;-2.20;99.90;;;;;;4996927;28;20381;-73
2023/02/26 06:21:49;;;;;;;;;;;-2.20;99.90;;;;;;4988404;28;19914;-73
2023/02/26 06:24:15;;;;;;;;;;;-2.20;99.90;;;;;;4995429;28;19968;-73
2023/02/26 06:26:41;;;;;;;;;;;-2.20;1.00;;;;;;4996863;28;19909;-73
2023/02/26 06:29:07;;;;;;;;;;;-2.10;99.90;;;;;;4995782;28;20387;-73
2023/02/26 06:31:33;;;;;;;;;;;-2.10;99.90;;;;;;4987576;28;20382;-73
2023/02/26 06:33:59;;;;;;;;;;;-2.10;99.90;;;;;;4994511;28;20314;-73
2023/02/26 06:36:25;;;;;;;;;;;-2.20;1.00;;;;;;4996214;28;20287;-73
2023/02/26 06:38:51;;;;;;;;;;;-2.20;1.00;;;;;;4996131;28;19913;-73
2023/02/26 06:41:17;;;;;;;;;;;-2.10;1.00;;;;;;4979697;28;19921;-73
2023/02/26 06:43:43;;;;;;;;;;;-2.10;1.00;;;;;;4995744;28;19914;-74
2023/02/26 06:46:09;;;;;;;;;;;-2.10;1.00;;;;;;4996839;28;19941;-74
2023/02/26 06:48:35;;;;;;;;;;;-2.10;1.00;;;;;;4991720;28;20500;-73
2023/02/26 06:51:01;;;;;;;;;;;-2.00;1.00;;;;;;4993403;28;19913;-74
2023/02/26 06:53:27;;;;;;;;;;;-2.00;1.00;;;;;;4994934;28;19929;-74
2023/02/26 06:55:53;;;;;;;;;;;-2.00;1.00;;;;;;4996289;28;20286;-73
2023/02/26 06:58:19;;;;;;;;;;;-1.90;1.00;;;;;;4999656;28;19917;-75
2023/02/26 07:00:45;;;;;;;;;;;-2.00;1.00;;;;;;4978436;28;19925;-73
2023/02/26 07:03:12;;;;;;;;;;;-2.00;1.00;;;;;;4995929;28;20005;-74
2023/02/26 07:05:38;;;;;;;;;;;-1.90;1.00;;;;;;4982416;28;19914;-75
2023/02/26 07:08:04;;;;;;;;;;;-1.80;1.00;;;;;;4995414;28;20142;-75
2023/02/26 07:10:31;;;;;;;;;;;-1.70;1.00;;;;;;4991791;28;19914;-72
2023/02/26 07:12:57;;;;;;;;;;;-1.90;1.00;;;;;;4995228;28;19914;-75
2023/02/26 07:15:23;;;;;;;;;;;-1.80;1.00;;;;;;4984771;28;20000;-73
2023/02/26 07:17:49;;;;;;;;;;;-1.80;1.00;;;;;;4997716;28;19918;-75
2023/02/26 07:20:16;;;;;;;;;;;-1.80;1.00;;;;;;4994144;28;20009;-73
2023/02/26 07:22:43;;;;;;;;;;;-1.60;1.00;;;;;;4982939;28;19914;-74
2023/02/26 07:25:10;;;;;;;;;;;-1.20;99.90;;;;;;4994827;28;20295;-74
2023/02/26 07:27:36;;;;;;;;;;;-0.90;99.90;;;;;;4995709;28;19913;-72
2023/02/26 07:30:03;;;;;;;;;;;-0.80;99.90;;;;;;4993855;28;19921;-72
2023/02/26 07:32:30;;;;;;;;;;;-0.70;99.90;;;;;;4978922;28;19925;-73
2023/02/26 07:34:56;;;;;;;;;;;-0.60;99.90;;;;;;4982735;28;19922;-72
2023/02/26 07:37:22;;;;;;;;;;;-0.50;99.90;;;;;;4989295;28;19933;-74
2023/02/26 07:39:48;;;;;;;;;;;-0.40;99.90;;;;;;4994168;28;19914;-72
2023/02/26 07:42:14;;;;;;;;;;;-0.30;99.90;;;;;;4994208;28;19913;-72
2023/02/26 07:44:41;;;;;;;;;;;-0.40;99.90;;;;;;4986159;28;19914;-73
2023/02/26 07:47:07;;;;;;;;;;;-0.50;99.90;;;;;;4994879;28;20374;-74
2023/02/26 07:49:33;;;;;;;;;;;-0.50;99.90;;;;;;4998641;28;19925;-73
2023/02/26 07:52:00;;;;;;;;;;;-0.50;99.90;;;;;;4980629;28;19917;-73
2023/02/26 07:54:26;;;;;;;;;;;-0.50;99.90;;;;;;4998542;28;19918;-73
2023/02/26 07:56:52;;;;;;;;;;;-0.40;99.90;;;;;;4994698;28;19914;-74
2023/02/26 07:59:18;;;;;;;;;;;-0.30;99.90;;;;;;4983118;28;20353;-73
2023/02/26 08:01:44;;;;;;;;;;;-0.30;99.90;;;;;;4993673;28;20005;-73
2023/02/26 08:04:10;;;;;;;;;;;-0.30;99.90;;;;;;4994455;28;19921;-73
2023/02/26 08:06:36;;;;;;;;;;;-0.30;99.90;;;;;;4994655;28;19913;-73
2023/02/26 08:09:02;;;;;;;;;;;-0.20;99.90;;;;;;4993994;28;19921;-73
2023/02/26 08:11:28;;;;;;;;;;;-0.10;99.90;;;;;;4993349;28;19914;-73
2023/02/26 08:13:54;;;;;;;;;;;-0.10;99.90;;;;;;4994326;28;20263;-73
2023/02/26 08:16:20;;;;;;;;;;;-0.10;99.90;;;;;;4994782;28;19921;-74
2023/02/26 08:18:46;;;;;;;;;;;0.00;99.90;;;;;;4994940;28;19960;-74
2023/02/26 08:21:12;;;;;;;;;;;0.20;99.90;;;;;;4993303;28;19921;-74
2023/02/26 08:23:39;;;;;;;;;;;0.40;99.90;;;;;;4994462;28;19997;-74
2023/02/26 08:26:06;;;;;;;;;;;0.80;99.90;;;;;;4994199;28;19915;-75
2023/02/26 08:28:32;;;;;;;;;;;1.20;99.90;;;;;;4994767;28;19916;-78
2023/02/26 08:30:58;;;;;;;;;;;0.80;99.90;;;;;;4987110;28;20256;-78
2023/02/26 08:33:25;;;;;;;;;;;0.80;99.90;;;;;;4981575;28;19917;-77
2023/02/26 08:35:51;;;;;;;;;;;0.90;99.90;;;;;;4993684;28;19921;-78
2023/02/26 08:38:16;;;;;;;;;;;0.90;99.90;;;;;;4997750;28;20355;-80
2023/02/26 08:40:42;;;;;;;;;;;1.00;99.90;;;;;;4984421;28;19914;-78
2023/02/26 08:43:10;;;;;;;;;;;1.20;99.90;;;;;;4975338;28;20243;-76
2023/02/26 08:45:36;;;;;;;;;;;1.30;99.90;;;;;;4995647;28;19910;-72
2023/02/26 08:48:02;;;;;;;;;;;1.70;99.90;;;;;;4994224;28;19914;-77
2023/02/26 08:50:28;;;;;;;;;;;1.80;99.90;;;;;;4994261;28;20389;-78
2023/02/26 08:52:54;;;;;;;;;;;1.60;99.90;;;;;;4992976;28;19913;-79
2023/02/26 08:55:21;;;;;;;;;;;1.80;99.90;;;;;;4990734;28;19932;-78
2023/02/26 08:57:47;;;;;;;;;;;1.70;99.90;;;;;;4993882;28;19944;-78
2023/02/26 09:00:15;;;;;;;;;;;1.90;99.90;;;;;;4986275;28;20004;-81
2023/02/26 09:02:41;;;;;;;;;;;2.00;99.90;;;;;;4997961;28;19917;-77
2023/02/26 09:05:07;;;;;;;;;;;2.00;99.90;;;;;;4995430;28;19914;-77
2023/02/26 09:07:33;;;;;;;;;;;1.90;99.90;;;;;;4997683;28;19910;-74
2023/02/26 09:09:59;;;;;;;;;;;1.90;99.90;;;;;;4993129;28;19921;-75
2023/02/26 09:12:25;;;;;;;;;;;2.00;99.90;;;;;;4996667;28;20299;-74
2023/02/26 09:14:51;;;;;;;;;;;2.50;99.90;;;;;;4993067;28;19922;-76
2023/02/26 09:17:18;;;;;;;;;;;2.40;99.90;;;;;;4980785;28;19981;-75
2023/02/26 09:19:44;;;;;;;;;;;2.00;99.90;;;;;;4994034;28;20402;-83
2023/02/26 09:22:10;;;;;;;;;;;1.90;99.90;;;;;;4993121;28;20248;-83
2023/02/26 09:24:36;;;;;;;;;;;1.80;99.90;;;;;;4992763;28;19913;-80
2023/02/26 09:27:02;;;;;;;;;;;1.80;99.90;;;;;;4995363;28;19960;-77
2023/02/26 09:29:28;;;;;;;;;;;1.80;99.90;;;;;;4988835;28;19917;-77
2023/02/26 09:31:54;;;;;;;;;;;1.90;99.90;;;;;;4995430;28;20401;-80
2023/02/26 09:34:20;;;;;;;;;;;1.80;99.90;;;;;;4991391;28;19925;-83
2023/02/26 09:36:46;;;;;;;;;;;1.60;99.90;;;;;;4997663;28;19949;-79
2023/02/26 09:39:12;;;;;;;;;;;1.60;99.90;;;;;;4991047;28;19953;-78
2023/02/26 09:41:49;;;;;;;;;;;1.90;99.90;;;;;;4993603;28;20327;-78
2023/02/26 09:44:15;;;;;;;;;;;2.00;99.90;;;;;;4996817;28;20382;-77
2023/02/26 09:46:45;;;;;;;;;;;2.20;99.90;;;;;;4996401;28;20000;-82
2023/02/26 09:49:23;;;;;;;;;;;2.50;99.90;;;;;;4991673;28;19913;-79
2023/02/26 09:51:52;;;;;;;;;;;2.20;99.90;;;;;;4997038;28;19928;-78
2023/02/26 09:54:20;;;;;;;;;;;2.30;99.90;;;;;;4993208;28;19922;-81
2023/02/26 09:56:47;;;;;;;;;;;2.50;99.90;;;;;;4993656;28;19921;-82
2023/02/26 09:59:13;;;;;;;;;;;2.50;99.90;;;;;;4991535;28;19914;-83
2023/02/26 10:01:44;;;;;;;;;;;2.60;99.90;;;;;;4994197;28;19929;-84
2023/02/26 10:04:28;;;;;;;;;;;2.80;99.90;;;;;;4993170;28;20280;-81
2023/02/26 10:07:03;;;;;;;;;;;2.60;99.90;;;;;;4992637;28;19914;-78
2023/02/26 10:09:47;;;;;;;;;;;2.50;99.90;;;;;;4991390;28;19914;-83
2023/02/26 10:12:16;;;;;;;;;;;2.60;99.90;;;;;;4995205;28;21512;-79
2023/02/26 10:14:58;;;;;;;;;;;2.70;99.90;;;;;;4996457;28;20359;-83
2023/02/26 10:17:43;;;;;;;;;;;2.60;99.90;;;;;;4995316;28;19924;-77
2023/02/26 10:20:14;;;;;;;;;;;2.50;99.90;;;;;;4992493;28;19922;-79
2023/02/26 10:22:40;;;;;;;;;;;2.60;99.90;;;;;;4993153;28;19940;-78
2023/02/26 10:25:10;;;;;;;;;;;2.70;99.90;;;;;;4992205;28;19936;-82
2023/02/26 10:27:49;;;;;;;;;;;3.10;99.90;;;;;;4991752;28;20355;-81
2023/02/26 10:30:29;;;;;;;;;;;3.10;99.90;;;;;;4995274;28;20323;-77
2023/02/26 10:33:13;;;;;;;;;;;2.70;99.90;;;;;;4992352;28;20241;-78
2023/02/26 10:35:44;;;;;;;;;;;2.90;99.90;;;;;;4999435;28;19918;-86
2023/02/26 10:38:11;;;;;;;;;;;3.00;99.90;;;;;;4992642;28;19922;-82
2023/02/26 10:40:41;;;;;;;;;;;3.30;99.90;;;;;;4993692;28;19914;-78
2023/02/26 10:43:19;;;;;;;;;;;3.60;99.90;;;;;;4995301;28;19914;-81
2023/02/26 10:46:08;;;;;;;;;;;3.20;99.90;;;;;;4979019;28;19924;-79
2023/02/26 10:48:43;;;;;;;;;;;3.30;99.90;;;;;;4982011;28;19921;-81
2023/02/26 10:51:11;;;;;;;;;;;3.00;99.90;;;;;;4987122;28;20419;-78
2023/02/26 10:53:37;;;;;;;;;;;3.20;99.90;;;;;;4995870;28;19914;-81
2023/02/26 10:56:12;;;;;;;;;;;3.20;99.90;;;;;;4974627;28;19928;-80
2023/02/26 10:58:39;;;;;;;;;;;3.10;99.90;;;;;;4997578;28;19913;-80
2023/02/26 11:01:10;;;;;;;;;;;2.90;99.90;;;;;;4994097;28;19922;-78
2023/02/26 11:03:41;;;;;;;;;;;3.10;99.90;;;;;;4996293;28;19917;-80
2023/02/26 11:06:07;;;;;;;;;;;3.10;99.90;;;;;;4995859;28;19918;-80
2023/02/26 11:08:42;;;;;;;;;;;3.00;99.90;;;;;;4995866;28;19913;-80
2023/02/26 11:11:08;;;;;;;;;;;3.00;99.90;;;;;;4996748;28;19914;-77
2023/02/26 11:13:36;;;;;;;;;;;2.70;99.90;;;;;;4995737;28;20279;-76
2023/02/26 11:16:04;;;;;;;;;;;2.60;99.90;;;;;;4994854;28;20286;-81
2023/02/26 11:18:39;;;;;;;;;;;2.50;99.90;;;;;;4995658;28;20291;-77
2023/02/26 11:21:05;;;;;;;;;;;2.70;99.90;;;;;;4992986;28;19913;-76
2023/02/26 11:23:32;;;;;;;;;;;2.90;99.90;;;;;;4995622;28;20287;-77
2023/02/26 11:26:12;;;;;;;;;;;2.90;99.90;;;;;;4995354;28;19914;-78
2023/02/26 11:28:43;;;;;;;;;;;3.10;99.90;;;;;;4995824;28;20264;-77
2023/02/26 11:31:11;;;;;;;;;;;3.30;99.90;;;;;;4995869;28;19921;-78
2023/02/26 11:33:44;;;;;;;;;;;3.60;99.90;;;;;;4995654;28;19962;-78
2023/02/26 11:36:14;;;;;;;;;;;3.70;99.90;;;;;;4977331;28;19925;-82
2023/02/26 11:38:44;;;;;;;;;;;3.40;99.90;;;;;;4997052;28;20383;-78
2023/02/26 11:41:11;;;;;;;;;;;3.20;99.90;;;;;;4997279;28;19925;-78
2023/02/26 11:43:45;;;;;;;;;;;3.10;99.90;;;;;;5001802;28;20359;-79
2023/02/26 11:46:12;;;;;;;;;;;2.90;99.90;;;;;;4981514;28;19914;-80
2023/02/26 11:48:38;;;;;;;;;;;2.90;99.90;;;;;;4998888;28;19910;-80
2023/02/26 11:51:05;;;;;;;;;;;2.90;99.90;;;;;;4994505;28;19921;-81
2023/02/26 11:53:35;;;;;;;;;;;2.90;99.90;;;;;;4995031;28;20347;-79
2023/02/26 11:56:12;;;;;;;;;;;3.00;99.90;;;;;;4975297;28;20290;-78
2023/02/26 11:58:39;;;;;;;;;;;3.30;99.90;;;;;;4988920;28;19918;-79
2023/02/26 12:01:06;;;;;;;;;;;3.30;99.90;;;;;;4991612;28;19928;-80
2023/02/26 12:03:39;;;;;;;;;;;3.30;99.90;;;;;;4995265;28;19925;-78
2023/02/26 12:06:06;;;;;;;;;;;3.50;99.90;;;;;;4994682;28;19914;-78
2023/02/26 12:08:39;;;;;;;;;;;3.40;99.90;;;;;;4994535;28;19913;-83
2023/02/26 12:11:20;;;;;;;;;;;3.30;99.90;;;;;;4996747;28;19913;-84
2023/02/26 12:13:49;;;;;;;;;;;3.40;99.90;;;;;;4992021;28;20370;-79
2023/02/26 12:16:18;;;;;;;;;;;3.50;99.90;;;;;;4994688;28;19929;-81
2023/02/26 12:18:53;;;;;;;;;;;3.50;99.90;;;;;;4993636;28;19930;-83
2023/02/26 12:21:38;;;;;;;;;;;3.60;99.90;;;;;;4986286;28;20248;-80
2023/02/26 12:24:08;;;;;;;;;;;3.60;99.90;;;;;;4999550;28;19921;-80
2023/02/26 12:26:34;;;;;;;;;;;3.70;99.90;;;;;;4994458;28;19914;-77
2023/02/26 12:29:23;;;;;;;;;;;4.00;99.90;;;;;;4994162;28;19914;-78
2023/02/26 12:31:56;;;;;;;;;;;4.00;99.90;;;;;;4994602;28;19918;-78
2023/02/26 12:34:27;;;;;;;;;;;3.80;99.90;;;;;;4994775;28;19918;-79
2023/02/26 12:37:03;;;;;;;;;;;3.60;99.90;;;;;;4998539;28;19918;-78
2023/02/26 12:39:29;;;;;;;;;;;3.60;99.90;;;;;;4998013;28;19914;-75
2023/02/26 12:41:58;;;;;;;;;;;3.40;99.90;;;;;;4993373;28;20406;-76
2023/02/26 12:44:27;;;;;;;;;;;3.70;99.90;;;;;;4993748;28;19914;-82
2023/02/26 12:46:59;;;;;;;;;;;4.00;99.90;;;;;;4994515;28;19914;-80
2023/02/26 12:49:44;;;;;;;;;;;4.20;99.90;;;;;;4991053;28;19936;-77
2023/02/26 12:52:15;;;;;;;;;;;3.90;99.90;;;;;;4992370;28;20122;-79
2023/02/26 12:54:41;;;;;;;;;;;4.10;99.90;;;;;;4993823;28;19922;-77
2023/02/26 12:57:10;;;;;;;;;;;4.10;99.90;;;;;;4993436;28;19925;-75
2023/02/26 12:59:38;;;;;;;;;;;4.00;99.90;;;;;;4993842;28;19914;-77
2023/02/26 13:02:33;;;;;;;;;;;4.10;99.90;;;;;;4992125;28;19933;-79
2023/02/26 13:05:09;;;;;;;;;;;3.90;99.90;;;;;;4995706;28;19920;-75
2023/02/26 13:07:41;;;;;;;;;;;4.00;99.90;;;;;;4997661;28;19914;-75
2023/02/26 13:10:07;;;;;;;;;;;4.00;99.90;;;;;;4993110;28;19920;-75
2023/02/26 13:12:58;;;;;;;;;;;4.10;99.90;;;;;;4992309;28;19914;-79
2023/02/26 13:15:42;;;;;;;;;;;3.70;99.90;;;;;;4997281;28;19918;-74
2023/02/26 13:18:08;;;;;;;;;;;3.80;99.90;;;;;;4997494;28;19925;-79
2023/02/26 13:20:36;;;;;;;;;;;3.90;99.90;;;;;;4992915;28;19910;-83
2023/02/26 13:23:04;;;;;;;;;;;4.10;99.90;;;;;;4995170;28;19921;-80
2023/02/26 13:25:33;;;;;;;;;;;4.10;99.90;;;;;;4994142;28;19920;-78
2023/02/26 13:28:01;;;;;;;;;;;4.20;99.90;;;;;;4992814;28;19914;-77
2023/02/26 13:30:31;;;;;;;;;;;4.20;99.90;;;;;;4993637;28;20244;-81
2023/02/26 13:32:58;;;;;;;;;;;4.30;99.90;;;;;;4991848;28;20364;-78
2023/02/26 13:35:37;;;;;;;;;;;4.20;99.90;;;;;;4977974;28;19925;-77
2023/02/26 13:38:12;;;;;;;;;;;4.00;99.90;;;;;;4996253;28;19917;-77
2023/02/26 13:40:46;;;;;;;;;;;3.80;99.90;;;;;;4993773;28;20374;-84
2023/02/26 13:43:22;;;;;;;;;;;3.90;99.90;;;;;;4994800;28;19921;-78
2023/02/26 13:45:54;;;;;;;;;;;3.90;99.90;;;;;;4993477;28;19925;-79
2023/02/26 13:48:27;;;;;;;;;;;3.80;99.90;;;;;;4991514;28;20393;-78
2023/02/26 13:51:03;;;;;;;;;;;3.80;99.90;;;;;;4993246;28;19914;-77
2023/02/26 13:53:38;;;;;;;;;;;3.70;99.90;;;;;;4978089;28;19920;-79
2023/02/26 13:56:16;;;;;;;;;;;3.80;99.90;;;;;;4976675;28;20270;-83
2023/02/26 13:58:46;;;;;;;;;;;3.90;99.90;;;;;;4979253;28;19918;-80
2023/02/26 14:01:14;;;;;;;;;;;3.90;99.90;;;;;;4992376;28;19947;-81
2023/02/26 14:03:50;;;;;;;;;;;3.80;99.90;;;;;;4991470;28;19918;-77
2023/02/26 14:06:24;;;;;;;;;;;3.70;99.90;;;;;;4992760;28;19920;-76
2023/02/26 14:08:55;;;;;;;;;;;3.80;99.90;;;;;;4992934;28;19921;-76
2023/02/26 14:11:24;;;;;;;;;;;3.70;99.90;;;;;;4996673;28;19921;-76
2023/02/26 14:14:04;;;;;;;;;;;3.60;99.90;;;;;;4991758;28;20381;-77
2023/02/26 14:16:33;;;;;;;;;;;3.70;99.90;;;;;;4991673;28;19925;-78
2023/02/26 14:19:03;;;;;;;;;;;3.90;99.90;;;;;;4993094;28;19918;-79
2023/02/26 14:21:29;;;;;;;;;;;3.90;99.90;;;;;;4999888;28;20311;-77
2023/02/26 14:23:56;;;;;;;;;;;3.90;99.90;;;;;;4978037;28;19923;-80
2023/02/26 14:26:24;;;;;;;;;;;3.80;99.90;;;;;;4996114;28;20077;-82
2023/02/26 14:29:05;;;;;;;;;;;3.90;99.90;;;;;;4992131;28;19987;-77
2023/02/26 14:31:55;;;;;;;;;;;4.00;99.90;;;;;;5013568;28;19937;-83
2023/02/26 14:34:21;;;;;;;;;;;3.80;99.90;;;;;;4981423;28;19928;-81
2023/02/26 14:37:01;;;;;;;;;;;3.90;99.90;;;;;;4992466;28;19932;-74